createdAt,value
2023-03-25T00:01:34.712Z,1.70
2023-03-25T00:04:04.475Z,1.60
2023-03-25T00:06:36.430Z,1.30
2023-03-25T00:09:04.542Z,2.17
2023-03-25T00:11:32.043Z,1.40
2023-03-25T00:14:00.527Z,1.20
2023-03-25T00:16:27.992Z,2.10
2023-03-25T00:18:55.652Z,1.37
2023-03-25T00:21:23.358Z,1.40
2023-03-25T00:23:51.317Z,1.30
2023-03-25T00:26:19.768Z,1.93
2023-03-25T00:28:47.394Z,1.53
2023-03-25T00:31:16.006Z,1.40
2023-03-25T00:33:43.670Z,1.37
2023-03-25T00:36:14.823Z,1.80
2023-03-25T00:38:43.422Z,1.20
2023-03-25T00:41:17.819Z,1.20
2023-03-25T00:43:46.050Z,1.20
2023-03-25T00:46:13.524Z,1.43
2023-03-25T00:48:42.122Z,1.30
2023-03-25T00:51:10.263Z,1.60
2023-03-25T00:53:38.343Z,1.37
2023-03-25T00:56:06.359Z,1.40
2023-03-25T00:58:33.961Z,1.30
2023-03-25T01:01:02.937Z,1.60
2023-03-25T01:03:30.344Z,1.33
2023-03-25T01:05:58.098Z,1.40
2023-03-25T01:08:29.667Z,1.40
2023-03-25T01:11:00.579Z,1.57
2023-03-25T01:13:28.078Z,1.70
2023-03-25T01:15:55.774Z,1.50
2023-03-25T01:18:24.276Z,1.50
2023-03-25T01:20:52.466Z,1.70
2023-03-25T01:23:20.221Z,1.43
2023-03-25T01:25:47.621Z,1.80
2023-03-25T01:28:16.896Z,1.73
2023-03-25T01:30:44.268Z,1.70
2023-03-25T01:33:11.832Z,1.73
2023-03-25T01:35:39.311Z,1.80
2023-03-25T01:38:06.870Z,1.40
2023-03-25T01:40:34.305Z,1.47
2023-03-25T01:43:02.851Z,1.80
2023-03-25T01:45:33.374Z,1.50
2023-03-25T01:48:10.375Z,1.40
2023-03-25T01:50:39.671Z,1.43
2023-03-25T01:53:10.044Z,1.30
2023-03-25T01:55:40.320Z,1.47
2023-03-25T01:58:11.883Z,1.40
2023-03-25T02:00:40.797Z,2.90
2023-03-25T02:03:10.079Z,1.50
2023-03-25T02:05:44.309Z,1.50
2023-03-25T02:08:11.860Z,1.30
2023-03-25T02:10:39.881Z,1.70
2023-03-25T02:13:07.912Z,1.50
2023-03-25T02:15:48.848Z,1.50
2023-03-25T02:18:22.703Z,1.43
2023-03-25T02:20:55.425Z,1.63
2023-03-25T02:23:35.250Z,1.70
2023-03-25T02:26:12.993Z,1.90
2023-03-25T02:28:47.396Z,2.20
2023-03-25T02:31:33.206Z,2.37
2023-03-25T02:34:25.770Z,2.17
2023-03-25T02:37:12.570Z,1.70
2023-03-25T02:39:43.767Z,1.90
2023-03-25T02:42:14.377Z,3.10
2023-03-25T02:44:52.136Z,2.03
2023-03-25T02:47:21.117Z,2.47
2023-03-25T02:50:01.017Z,2.70
2023-03-25T02:52:30.689Z,2.77
2023-03-25T02:55:04.731Z,2.00
2023-03-25T02:57:34.729Z,1.90
2023-03-25T03:00:08.021Z,2.67
2023-03-25T03:02:36.160Z,2.00
2023-03-25T03:05:03.809Z,1.83
2023-03-25T03:07:36.389Z,2.00
2023-03-25T03:10:06.933Z,1.90
2023-03-25T03:12:40.817Z,2.37
2023-03-25T03:15:08.508Z,1.83
2023-03-25T03:18:00.599Z,1.80
2023-03-25T03:20:41.925Z,1.77
2023-03-25T03:23:12.317Z,1.87
2023-03-25T03:25:49.297Z,1.80
2023-03-25T03:28:24.850Z,1.70
2023-03-25T03:31:01.344Z,1.87
2023-03-25T03:33:33.119Z,2.03
2023-03-25T03:36:02.646Z,1.83
2023-03-25T03:38:32.755Z,1.70
2023-03-25T03:41:07.439Z,1.60
2023-03-25T03:43:39.004Z,1.70
2023-03-25T03:46:08.327Z,1.80
2023-03-25T03:49:02.040Z,1.50
2023-03-25T03:51:38.601Z,1.80
2023-03-25T03:54:08.833Z,2.10
2023-03-25T03:56:41.140Z,1.60
2023-03-25T03:59:15.096Z,1.60
2023-03-25T04:01:46.270Z,1.40
2023-03-25T04:04:16.505Z,1.43
2023-03-25T04:07:04.671Z,1.50
2023-03-25T04:09:38.558Z,1.50
2023-03-25T04:12:21.987Z,1.47
2023-03-25T04:14:50.768Z,1.50
2023-03-25T04:17:18.120Z,1.47
2023-03-25T04:19:48.808Z,1.40
2023-03-25T04:22:18.662Z,1.73
2023-03-25T04:24:49.763Z,1.83
2023-03-25T04:27:18.617Z,1.80
2023-03-25T04:29:49.008Z,2.40
2023-03-25T04:32:17.738Z,1.70
2023-03-25T04:34:46.789Z,2.00
2023-03-25T04:37:14.036Z,1.80
2023-03-25T04:39:41.592Z,1.60
2023-03-25T04:42:08.862Z,1.70
2023-03-25T04:44:39.257Z,1.70
2023-03-25T04:47:08.281Z,1.90
2023-03-25T04:49:35.654Z,2.00
2023-03-25T04:52:04.345Z,1.77
2023-03-25T04:54:31.963Z,2.10
2023-03-25T04:56:59.276Z,2.00
2023-03-25T04:59:27.032Z,2.30
2023-03-25T05:01:54.350Z,1.97
2023-03-25T05:04:21.739Z,2.17
2023-03-25T05:06:51.203Z,1.80
2023-03-25T05:09:22.198Z,2.00
2023-03-25T05:11:50.276Z,2.23
2023-03-25T05:14:18.803Z,2.23
2023-03-25T05:16:47.069Z,1.83
2023-03-25T05:19:15.113Z,2.10
2023-03-25T05:21:43.574Z,1.73
2023-03-25T05:24:11.991Z,2.30
2023-03-25T05:26:40.623Z,2.30
2023-03-25T05:29:09.304Z,2.27
2023-03-25T05:31:36.804Z,2.10
2023-03-25T05:34:06.655Z,2.20
2023-03-25T05:36:33.917Z,2.30
2023-03-25T05:39:04.635Z,2.10
2023-03-25T05:41:38.685Z,2.40
2023-03-25T05:44:10.218Z,2.70
2023-03-25T05:46:37.652Z,2.70
2023-03-25T05:49:04.864Z,3.10
2023-03-25T05:51:34.265Z,2.50
2023-03-25T05:54:01.896Z,2.70
2023-03-25T05:56:29.433Z,2.87
2023-03-25T05:58:57.419Z,2.63
2023-03-25T06:01:33.393Z,2.90
2023-03-25T06:04:02.120Z,2.53
2023-03-25T06:06:29.853Z,2.77
2023-03-25T06:08:57.036Z,3.50
2023-03-25T06:11:24.229Z,2.20
2023-03-25T06:13:51.480Z,3.17
2023-03-25T06:16:21.347Z,2.43
2023-03-25T06:18:57.184Z,2.10
2023-03-25T06:21:26.660Z,2.33
2023-03-25T06:23:54.816Z,2.63
2023-03-25T06:26:22.958Z,3.50
2023-03-25T06:28:50.242Z,2.03
2023-03-25T06:31:20.265Z,3.50
2023-03-25T06:33:48.650Z,1.83
2023-03-25T06:36:18.733Z,2.70
2023-03-25T06:38:50.429Z,1.77
2023-03-25T06:41:20.359Z,1.87
2023-03-25T06:43:53.523Z,2.10
2023-03-25T06:46:39.420Z,1.87
2023-03-25T06:49:16.245Z,2.10
2023-03-25T06:51:43.442Z,1.60
2023-03-25T06:54:10.822Z,1.57
2023-03-25T06:56:38.087Z,2.20
2023-03-25T06:59:05.745Z,2.60
2023-03-25T07:01:32.915Z,2.27
2023-03-25T07:04:00.162Z,3.77
2023-03-25T07:06:27.332Z,3.13
2023-03-25T07:08:54.518Z,2.20
2023-03-25T07:11:26.100Z,3.00
2023-03-25T07:13:53.956Z,2.20
2023-03-25T07:16:22.100Z,2.97
2023-03-25T07:18:50.476Z,2.10
2023-03-25T07:21:17.916Z,2.40
2023-03-25T07:23:45.536Z,2.33
2023-03-25T07:26:13.399Z,2.33
2023-03-25T07:28:40.978Z,3.57
2023-03-25T07:31:09.733Z,2.63
2023-03-25T07:33:37.094Z,2.50
2023-03-25T07:36:05.375Z,2.73
2023-03-25T07:38:32.735Z,2.40
2023-03-25T07:41:00.122Z,2.50
2023-03-25T07:43:27.258Z,3.37
2023-03-25T07:46:05.726Z,2.67
2023-03-25T07:48:33.391Z,2.57
2023-03-25T07:51:00.893Z,2.53
2023-03-25T07:53:28.081Z,2.20
2023-03-25T07:55:55.444Z,3.70
2023-03-25T07:58:22.601Z,2.87
2023-03-25T08:00:49.765Z,3.10
2023-03-25T08:03:18.553Z,2.90
2023-03-25T08:05:47.594Z,3.53
2023-03-25T08:08:15.442Z,3.10
2023-03-25T08:10:44.081Z,3.03
2023-03-25T08:13:12.081Z,3.30
2023-03-25T08:15:39.704Z,2.93
2023-03-25T08:18:07.329Z,2.63
2023-03-25T08:20:35.942Z,3.30
2023-03-25T08:23:06.048Z,3.20
2023-03-25T08:25:33.258Z,2.90
2023-03-25T08:28:00.738Z,2.80
2023-03-25T08:30:27.943Z,3.30
2023-03-25T08:32:55.576Z,4.23
2023-03-25T08:35:24.180Z,3.40
2023-03-25T08:37:51.652Z,3.53
2023-03-25T08:40:21.519Z,3.60
2023-03-25T08:42:49.199Z,3.57
2023-03-25T08:45:16.415Z,3.00
2023-03-25T08:47:45.556Z,3.57
2023-03-25T08:50:13.436Z,3.83
2023-03-25T08:52:41.141Z,2.97
2023-03-25T08:55:11.028Z,4.43
2023-03-25T08:57:39.451Z,4.40
2023-03-25T09:00:16.829Z,4.90
2023-03-25T09:02:45.386Z,3.00
2023-03-25T09:05:15.931Z,4.00
2023-03-25T09:07:43.403Z,3.83
2023-03-25T09:10:15.490Z,3.60
2023-03-25T09:12:43.110Z,3.80
2023-03-25T09:15:11.545Z,2.97
2023-03-25T09:17:39.224Z,3.20
2023-03-25T09:20:10.859Z,3.77
2023-03-25T09:22:39.512Z,3.33
2023-03-25T09:25:07.177Z,2.93
2023-03-25T09:27:34.966Z,4.07
2023-03-25T09:30:03.269Z,3.70
2023-03-25T09:32:30.543Z,2.57
2023-03-25T09:34:57.816Z,3.30
2023-03-25T09:37:25.793Z,3.20
2023-03-25T09:39:52.985Z,3.40
2023-03-25T09:42:29.400Z,3.43
2023-03-25T09:45:11.881Z,2.90
2023-03-25T09:47:43.804Z,2.90
2023-03-25T09:50:15.735Z,2.97
2023-03-25T09:53:01.443Z,3.70
2023-03-25T09:55:30.692Z,1.30
2023-03-25T09:58:25.235Z,1.80
2023-03-25T10:00:57.209Z,1.80
2023-03-25T10:03:30.978Z,1.80
2023-03-25T10:06:04.304Z,1.63
2023-03-25T10:08:55.396Z,1.60
2023-03-25T10:11:30.200Z,1.53
2023-03-25T10:14:06.270Z,2.00
2023-03-25T10:16:37.952Z,1.93
2023-03-25T10:19:23.615Z,2.40
2023-03-25T10:21:54.054Z,4.00
2023-03-25T10:24:40.093Z,2.30
2023-03-25T10:27:13.910Z,2.17
2023-03-25T10:29:45.281Z,1.70
2023-03-25T10:32:18.296Z,1.57
2023-03-25T10:34:49.707Z,1.40
2023-03-25T10:37:28.769Z,1.40
2023-03-25T10:39:58.417Z,1.30
2023-03-25T10:42:25.832Z,1.50
2023-03-25T10:44:53.344Z,1.60
2023-03-25T10:47:23.228Z,1.90
2023-03-25T10:49:51.468Z,1.70
2023-03-25T10:52:19.100Z,2.00
2023-03-25T10:54:48.604Z,1.50
2023-03-25T10:57:27.735Z,1.40
2023-03-25T11:00:01.326Z,1.80
2023-03-25T11:02:30.514Z,2.10
2023-03-25T11:05:00.858Z,1.83
2023-03-25T11:07:30.247Z,1.83
2023-03-25T11:10:20.570Z,1.77
2023-03-25T11:12:49.940Z,1.43
2023-03-25T11:15:25.174Z,1.60
2023-03-25T11:18:15.871Z,1.60
2023-03-25T11:20:48.399Z,2.30
2023-03-25T11:23:22.472Z,1.70
2023-03-25T11:25:50.908Z,1.83
2023-03-25T11:28:27.414Z,2.53
2023-03-25T11:31:12.762Z,1.90
2023-03-25T11:33:41.161Z,1.60
2023-03-25T11:36:28.466Z,2.07
2023-03-25T11:39:11.389Z,2.13
2023-03-25T11:41:38.678Z,1.80
2023-03-25T11:44:08.196Z,3.23
2023-03-25T11:46:43.148Z,1.73
2023-03-25T11:49:12.069Z,1.80
2023-03-25T11:51:41.205Z,2.10
2023-03-25T11:54:09.768Z,1.90
2023-03-25T11:56:38.935Z,2.13
2023-03-25T11:59:27.289Z,3.40
2023-03-25T12:02:18.319Z,2.13
2023-03-25T12:04:56.804Z,1.90
2023-03-25T12:07:24.383Z,2.00
2023-03-25T12:09:58.901Z,1.77
2023-03-25T12:12:41.832Z,1.70
2023-03-25T12:15:11.406Z,1.77
2023-03-25T12:17:38.557Z,1.67
2023-03-25T12:20:18.080Z,1.80
2023-03-25T12:22:52.857Z,2.00
2023-03-25T12:25:38.632Z,1.60
2023-03-25T12:28:17.862Z,1.87
2023-03-25T12:31:04.206Z,1.60
2023-03-25T12:33:50.592Z,1.73
2023-03-25T12:36:38.724Z,2.10
2023-03-25T12:39:39.476Z,1.90
2023-03-25T12:42:18.282Z,1.77
2023-03-25T12:44:59.903Z,2.10
2023-03-25T12:47:39.935Z,2.10
2023-03-25T12:50:16.353Z,1.77
2023-03-25T12:52:59.368Z,1.50
2023-03-25T12:55:42.382Z,1.90
2023-03-25T12:58:26.441Z,1.80
2023-03-25T13:00:59.953Z,1.80
2023-03-25T13:03:27.223Z,1.80
2023-03-25T13:06:22.265Z,1.93
2023-03-25T13:08:55.392Z,1.90
2023-03-25T13:11:26.325Z,1.40
2023-03-25T13:13:54.307Z,1.60
2023-03-25T13:16:24.910Z,1.70
2023-03-25T13:19:02.675Z,1.97
2023-03-25T13:21:33.063Z,4.07
2023-03-25T13:24:03.195Z,1.67
2023-03-25T13:26:32.131Z,1.83
2023-03-25T13:29:12.847Z,2.00
2023-03-25T13:31:42.470Z,1.50
2023-03-25T13:34:22.784Z,1.50
2023-03-25T13:36:54.092Z,1.67
2023-03-25T13:39:23.660Z,1.50
2023-03-25T13:41:54.472Z,2.10
2023-03-25T13:44:27.091Z,1.50
2023-03-25T13:46:56.618Z,1.90
2023-03-25T13:49:26.773Z,1.70
2023-03-25T13:51:54.125Z,1.50
2023-03-25T13:54:34.643Z,1.90
2023-03-25T13:57:27.212Z,1.73
2023-03-25T14:00:01.449Z,1.93
2023-03-25T14:02:28.623Z,1.87
2023-03-25T14:05:16.404Z,1.90
2023-03-25T14:07:52.155Z,1.80
2023-03-25T14:10:38.562Z,2.10
2023-03-25T14:13:07.471Z,1.70
2023-03-25T14:15:40.373Z,2.00
2023-03-25T14:18:14.080Z,2.00
2023-03-25T14:20:41.874Z,1.77
2023-03-25T14:23:13.898Z,1.90
2023-03-25T14:25:46.260Z,2.17
2023-03-25T14:28:17.321Z,1.77
2023-03-25T14:30:45.589Z,1.83
2023-03-25T14:33:12.803Z,1.80
2023-03-25T14:35:41.680Z,1.60
2023-03-25T14:38:08.944Z,1.70
2023-03-25T14:40:47.935Z,1.57
2023-03-25T14:43:40.311Z,1.60
2023-03-25T14:46:14.348Z,1.60
2023-03-25T14:49:01.981Z,1.80
2023-03-25T14:51:29.237Z,1.90
2023-03-25T14:54:03.629Z,2.27
2023-03-25T14:56:34.867Z,2.20
2023-03-25T14:59:07.695Z,2.20
2023-03-25T15:01:36.639Z,1.70
2023-03-25T15:04:11.660Z,2.00
2023-03-25T15:06:39.203Z,1.97
2023-03-25T15:09:12.974Z,1.97
2023-03-25T15:11:42.665Z,1.70
2023-03-25T15:14:12.569Z,2.20
2023-03-25T15:16:58.939Z,1.97
2023-03-25T15:19:27.770Z,1.90
2023-03-25T15:21:57.968Z,2.03
2023-03-25T15:24:28.517Z,2.10
2023-03-25T15:26:56.675Z,1.63
2023-03-25T15:29:42.499Z,1.47
2023-03-25T15:32:15.895Z,1.87
2023-03-25T15:34:46.985Z,2.20
2023-03-25T15:37:45.554Z,2.07
2023-03-25T15:40:26.409Z,1.87
2023-03-25T15:43:01.275Z,1.77
2023-03-25T15:45:47.799Z,1.83
2023-03-25T15:48:19.130Z,2.10
2023-03-25T15:51:06.851Z,2.17
2023-03-25T15:53:42.523Z,2.07
2023-03-25T15:56:13.116Z,1.80
2023-03-25T15:59:00.786Z,2.00
2023-03-25T16:01:32.247Z,2.10
2023-03-25T16:04:13.328Z,2.30
2023-03-25T16:06:42.124Z,2.10
2023-03-25T16:09:16.873Z,1.80
2023-03-25T16:11:44.357Z,1.90
2023-03-25T16:14:12.901Z,2.13
2023-03-25T16:16:42.272Z,2.37
2023-03-25T16:19:11.189Z,1.87
2023-03-25T16:21:38.422Z,2.20
2023-03-25T16:24:07.831Z,2.10
2023-03-25T16:26:37.142Z,1.40
2023-03-25T16:29:23.931Z,1.80
2023-03-25T16:31:52.757Z,2.10
2023-03-25T16:34:20.214Z,2.00
2023-03-25T16:36:50.747Z,2.40
2023-03-25T16:39:18.724Z,1.70
2023-03-25T16:41:47.185Z,1.70
2023-03-25T16:44:18.374Z,1.70
2023-03-25T16:46:46.379Z,1.70
2023-03-25T16:49:22.482Z,1.93
2023-03-25T16:51:51.642Z,2.17
2023-03-25T16:54:42.664Z,1.90
2023-03-25T16:57:18.142Z,3.07
2023-03-25T16:59:46.660Z,1.90
2023-03-25T17:02:25.402Z,1.93
2023-03-25T17:04:56.510Z,1.97
2023-03-25T17:07:26.702Z,1.40
2023-03-25T17:09:55.957Z,2.00
2023-03-25T17:12:24.798Z,2.27
2023-03-25T17:14:53.236Z,1.80
2023-03-25T17:17:23.871Z,1.67
2023-03-25T17:19:52.205Z,2.40
2023-03-25T17:22:33.176Z,2.03
2023-03-25T17:25:15.577Z,2.30
2023-03-25T17:27:43.631Z,2.10
2023-03-25T17:30:19.430Z,2.00
2023-03-25T17:32:47.347Z,2.30
2023-03-25T17:35:23.930Z,1.93
2023-03-25T17:37:51.576Z,2.20
2023-03-25T17:40:23.148Z,1.70
2023-03-25T17:42:50.463Z,2.20
2023-03-25T17:45:19.440Z,1.80
2023-03-25T17:47:48.164Z,2.20
2023-03-25T17:50:18.048Z,2.13
2023-03-25T17:52:45.363Z,1.80
2023-03-25T17:55:12.860Z,2.20
2023-03-25T17:57:41.232Z,1.90
2023-03-25T18:00:12.329Z,2.20
2023-03-25T18:02:40.767Z,2.10
2023-03-25T18:05:08.734Z,2.83
2023-03-25T18:07:36.248Z,2.30
2023-03-25T18:10:03.745Z,1.90
2023-03-25T18:12:31.241Z,2.70
2023-03-25T18:14:58.446Z,2.07
2023-03-25T18:17:25.905Z,2.40
2023-03-25T18:19:53.080Z,3.33
2023-03-25T18:22:21.204Z,2.60
2023-03-25T18:24:48.419Z,2.63
2023-03-25T18:27:16.043Z,2.00
2023-03-25T18:29:43.468Z,2.00
2023-03-25T18:32:11.004Z,1.80
2023-03-25T18:34:38.173Z,1.80
2023-03-25T18:37:05.360Z,2.20
2023-03-25T18:39:32.768Z,1.77
2023-03-25T18:41:59.992Z,2.20
2023-03-25T18:44:28.279Z,2.10
2023-03-25T18:46:55.820Z,2.00
2023-03-25T18:49:23.068Z,1.93
2023-03-25T18:51:50.362Z,1.90
2023-03-25T18:54:17.627Z,1.73
2023-03-25T18:56:45.366Z,1.50
2023-03-25T18:59:17.268Z,2.27
2023-03-25T19:01:44.710Z,1.87
2023-03-25T19:04:11.874Z,1.30
2023-03-25T19:06:40.514Z,1.50
2023-03-25T19:09:09.605Z,1.93
2023-03-25T19:11:37.254Z,1.60
2023-03-25T19:14:04.580Z,1.60
2023-03-25T19:16:32.313Z,1.83
2023-03-25T19:19:00.533Z,1.40
2023-03-25T19:21:29.238Z,1.40
2023-03-25T19:23:56.631Z,1.70
2023-03-25T19:26:23.793Z,1.60
2023-03-25T19:28:51.194Z,1.53
2023-03-25T19:31:19.005Z,1.67
2023-03-25T19:33:46.802Z,1.50
2023-03-25T19:36:18.758Z,1.63
2023-03-25T19:38:46.719Z,1.50
2023-03-25T19:41:16.598Z,1.67
2023-03-25T19:43:44.066Z,1.40
2023-03-25T19:46:11.591Z,1.73
2023-03-25T19:48:39.195Z,1.37
2023-03-25T19:51:07.016Z,1.57
2023-03-25T19:53:34.743Z,1.63
2023-03-25T19:56:02.940Z,1.67
2023-03-25T19:58:30.798Z,1.50
2023-03-25T20:00:58.433Z,1.60
2023-03-25T20:03:26.513Z,1.77
2023-03-25T20:06:05.010Z,1.70
2023-03-25T20:08:32.566Z,2.20
2023-03-25T20:10:59.741Z,1.80
2023-03-25T20:13:27.020Z,1.87
2023-03-25T20:15:54.607Z,1.70
2023-03-25T20:18:22.154Z,2.40
2023-03-25T20:20:49.885Z,2.43
2023-03-25T20:23:17.045Z,3.10
2023-03-25T20:25:44.306Z,2.00
2023-03-25T20:28:11.536Z,1.67
2023-03-25T20:30:40.234Z,1.80
2023-03-25T20:33:07.665Z,1.60
2023-03-25T20:35:37.017Z,1.70
2023-03-25T20:38:04.248Z,2.03
2023-03-25T20:40:43.440Z,1.93
2023-03-25T20:43:13.672Z,2.10
2023-03-25T20:45:42.426Z,2.27
2023-03-25T20:48:10.007Z,2.40
2023-03-25T20:50:38.043Z,1.90
2023-03-25T20:53:05.672Z,2.07
2023-03-25T20:55:32.927Z,1.90
2023-03-25T20:58:00.667Z,3.30
2023-03-25T21:00:28.464Z,2.23
2023-03-25T21:02:57.387Z,2.20
2023-03-25T21:05:27.114Z,2.40
2023-03-25T21:07:54.355Z,2.63
2023-03-25T21:10:21.798Z,2.00
2023-03-25T21:12:49.053Z,2.47
2023-03-25T21:15:16.525Z,2.60
2023-03-25T21:17:43.944Z,2.00
2023-03-25T21:20:11.451Z,2.20
2023-03-25T21:22:42.735Z,2.30
2023-03-25T21:25:12.554Z,2.00
2023-03-25T21:27:40.180Z,2.10
2023-03-25T21:30:09.208Z,2.83
2023-03-25T21:32:36.459Z,2.33
2023-03-25T21:35:03.730Z,2.20
2023-03-25T21:37:35.556Z,2.10
2023-03-25T21:40:02.960Z,3.17
2023-03-25T21:42:30.139Z,2.43
2023-03-25T21:44:58.267Z,2.60
2023-03-25T21:47:25.451Z,2.57
2023-03-25T21:49:52.654Z,2.97
2023-03-25T21:52:19.878Z,2.63
2023-03-25T21:54:48.380Z,2.53
2023-03-25T21:57:15.712Z,2.30
2023-03-25T21:59:42.897Z,2.40
2023-03-25T22:02:14.155Z,2.70
2023-03-25T22:04:41.698Z,2.50
2023-03-25T22:07:08.874Z,2.50
2023-03-25T22:09:36.163Z,2.80
2023-03-25T22:12:03.446Z,2.20
2023-03-25T22:14:30.767Z,2.33
2023-03-25T22:16:57.969Z,2.33
2023-03-25T22:19:25.355Z,2.20
2023-03-25T22:21:52.580Z,2.20
2023-03-25T22:24:19.741Z,2.40
2023-03-25T22:26:46.912Z,1.77
2023-03-25T22:29:16.416Z,2.50
2023-03-25T22:31:44.555Z,2.03
2023-03-25T22:34:14.902Z,2.60
2023-03-25T22:36:46.021Z,2.03
2023-03-25T22:39:13.332Z,2.30
2023-03-25T22:41:40.529Z,2.63
2023-03-25T22:44:07.758Z,2.30
2023-03-25T22:46:35.007Z,2.03
2023-03-25T22:49:04.301Z,3.13
2023-03-25T22:51:31.668Z,2.10
2023-03-25T22:53:58.920Z,2.53
2023-03-25T22:56:33.473Z,2.40
2023-03-25T22:59:01.742Z,2.87
2023-03-25T23:01:29.220Z,2.43
2023-03-25T23:03:57.372Z,2.47
2023-03-25T23:06:25.503Z,2.33
2023-03-25T23:08:57.270Z,2.70
2023-03-25T23:11:25.946Z,3.03
2023-03-25T23:13:56.100Z,2.57
2023-03-25T23:16:24.608Z,3.20
2023-03-25T23:18:52.185Z,3.00
2023-03-25T23:21:23.574Z,2.37
2023-03-25T23:23:53.738Z,2.23
2023-03-25T23:26:24.394Z,2.73
2023-03-25T23:28:52.018Z,2.20
2023-03-25T23:31:27.704Z,2.40
2023-03-25T23:33:56.610Z,2.17
2023-03-25T23:36:25.423Z,2.00
2023-03-25T23:38:53.576Z,2.40
2023-03-25T23:41:25.593Z,2.37
2023-03-25T23:43:56.465Z,2.23
2023-03-25T23:46:24.412Z,2.80
2023-03-25T23:48:54.656Z,2.50
2023-03-25T23:51:25.314Z,2.73
2023-03-25T23:53:53.734Z,3.60
2023-03-25T23:56:22.429Z,2.43
2023-03-25T23:58:49.718Z,2.80
